sensor_id;sensor_type;location;lat;lon;timestamp;temperature;humidity
59961;DHT22;55902;-37.980;-63.602;2023-10-19T00:00:59;15.50;50.60
59961;DHT22;55902;-37.980;-63.602;2023-10-19T00:03:26;15.50;50.70
59961;DHT22;55902;-37.980;-63.602;2023-10-19T00:05:56;15.50;52.00
59961;DHT22;55902;-37.980;-63.602;2023-10-19T00:08:24;15.50;51.60
59961;DHT22;55902;-37.980;-63.602;2023-10-19T00:10:52;15.40;51.10
59961;DHT22;55902;-37.980;-63.602;2023-10-19T00:28:05;15.40;51.90
59961;DHT22;55902;-37.980;-63.602;2023-10-19T00:30:39;15.30;52.10
59961;DHT22;55902;-37.980;-63.602;2023-10-19T00:33:12;15.20;53.30
59961;DHT22;55902;-37.980;-63.602;2023-10-19T00:35:47;15.10;53.60
59961;DHT22;55902;-37.980;-63.602;2023-10-19T00:38:28;15.00;54.30
59961;DHT22;55902;-37.980;-63.602;2023-10-19T00:41:01;14.90;54.60
59961;DHT22;55902;-37.980;-63.602;2023-10-19T00:43:40;14.80;55.30
59961;DHT22;55902;-37.980;-63.602;2023-10-19T00:46:19;14.80;55.50
59961;DHT22;55902;-37.980;-63.602;2023-10-19T00:48:54;14.70;56.20
59961;DHT22;55902;-37.980;-63.602;2023-10-19T00:51:30;14.60;56.70
59961;DHT22;55902;-37.980;-63.602;2023-10-19T00:54:13;14.50;57.30
59961;DHT22;55902;-37.980;-63.602;2023-10-19T00:56:48;14.40;58.30
59961;DHT22;55902;-37.980;-63.602;2023-10-19T00:59:18;14.30;58.60
59961;DHT22;55902;-37.980;-63.602;2023-10-19T01:01:56;14.20;59.80
59961;DHT22;55902;-37.980;-63.602;2023-10-19T01:04:52;14.10;61.30
59961;DHT22;55902;-37.980;-63.602;2023-10-19T01:07:26;13.90;61.90
59961;DHT22;55902;-37.980;-63.602;2023-10-19T01:10:01;13.80;63.70
59961;DHT22;55902;-37.980;-63.602;2023-10-19T01:12:34;13.70;64.30
59961;DHT22;55902;-37.980;-63.602;2023-10-19T01:17:38;13.50;64.90
59961;DHT22;55902;-37.980;-63.602;2023-10-19T01:20:21;13.40;65.50
59961;DHT22;55902;-37.980;-63.602;2023-10-19T01:22:58;13.40;65.70
59961;DHT22;55902;-37.980;-63.602;2023-10-19T01:25:57;13.50;66.40
59961;DHT22;55902;-37.980;-63.602;2023-10-19T01:28:28;13.30;68.50
59961;DHT22;55902;-37.980;-63.602;2023-10-19T01:31:19;13.20;69.40
59961;DHT22;55902;-37.980;-63.602;2023-10-19T01:33:49;13.10;69.50
59961;DHT22;55902;-37.980;-63.602;2023-10-19T01:36:19;13.10;70.10
59961;DHT22;55902;-37.980;-63.602;2023-10-19T01:38:50;13.10;70.10
59961;DHT22;55902;-37.980;-63.602;2023-10-19T01:41:22;13.00;71.30
59961;DHT22;55902;-37.980;-63.602;2023-10-19T01:43:51;13.00;72.40
59961;DHT22;55902;-37.980;-63.602;2023-10-19T01:46:25;12.70;74.10
59961;DHT22;55902;-37.980;-63.602;2023-10-19T01:48:58;12.50;76.40
59961;DHT22;55902;-37.980;-63.602;2023-10-19T01:51:26;12.30;79.10
59961;DHT22;55902;-37.980;-63.602;2023-10-19T01:54:00;12.00;81.70
59961;DHT22;55902;-37.980;-63.602;2023-10-19T01:56:35;11.70;84.60
59961;DHT22;55902;-37.980;-63.602;2023-10-19T01:59:10;11.40;88.70
59961;DHT22;55902;-37.980;-63.602;2023-10-19T02:01:38;11.20;90.70
59961;DHT22;55902;-37.980;-63.602;2023-10-19T02:04:08;11.10;92.20
59961;DHT22;55902;-37.980;-63.602;2023-10-19T02:06:36;11.00;92.20
59961;DHT22;55902;-37.980;-63.602;2023-10-19T02:09:09;11.00;92.90
59961;DHT22;55902;-37.980;-63.602;2023-10-19T02:11:50;10.90;93.50
59961;DHT22;55902;-37.980;-63.602;2023-10-19T02:14:28;10.90;94.10
59961;DHT22;55902;-37.980;-63.602;2023-10-19T02:16:59;10.90;94.70
59961;DHT22;55902;-37.980;-63.602;2023-10-19T02:19:28;10.90;95.30
59961;DHT22;55902;-37.980;-63.602;2023-10-19T02:22:02;10.80;96.40
59961;DHT22;55902;-37.980;-63.602;2023-10-19T02:24:38;10.80;98.10
59961;DHT22;55902;-37.980;-63.602;2023-10-19T02:27:05;10.70;99.40
59961;DHT22;55902;-37.980;-63.602;2023-10-19T02:29:32;10.70;99.90
59961;DHT22;55902;-37.980;-63.602;2023-10-19T02:32:02;10.70;99.90
59961;DHT22;55902;-37.980;-63.602;2023-10-19T02:34:32;10.60;99.90
59961;DHT22;55902;-37.980;-63.602;2023-10-19T02:37:04;10.60;99.90
59961;DHT22;55902;-37.980;-63.602;2023-10-19T02:39:31;10.50;99.90
59961;DHT22;55902;-37.980;-63.602;2023-10-19T02:41:58;10.50;99.90
59961;DHT22;55902;-37.980;-63.602;2023-10-19T02:44:27;10.50;99.90
59961;DHT22;55902;-37.980;-63.602;2023-10-19T02:46:56;10.60;99.90
59961;DHT22;55902;-37.980;-63.602;2023-10-19T02:49:32;10.60;99.90
59961;DHT22;55902;-37.980;-63.602;2023-10-19T02:52:04;10.50;99.90
59961;DHT22;55902;-37.980;-63.602;2023-10-19T02:54:32;10.40;99.90
59961;DHT22;55902;-37.980;-63.602;2023-10-19T02:57:02;10.40;99.90
59961;DHT22;55902;-37.980;-63.602;2023-10-19T02:59:33;10.40;99.90
59961;DHT22;55902;-37.980;-63.602;2023-10-19T03:02:01;10.40;99.90
59961;DHT22;55902;-37.980;-63.602;2023-10-19T03:04:40;10.40;99.90
59961;DHT22;55902;-37.980;-63.602;2023-10-19T03:07:14;10.30;99.90
59961;DHT22;55902;-37.980;-63.602;2023-10-19T03:09:41;10.30;99.90
59961;DHT22;55902;-37.980;-63.602;2023-10-19T03:12:15;10.30;99.90
59961;DHT22;55902;-37.980;-63.602;2023-10-19T03:14:43;10.30;99.90
59961;DHT22;55902;-37.980;-63.602;2023-10-19T03:17:13;10.20;99.90
59961;DHT22;55902;-37.980;-63.602;2023-10-19T03:19:40;10.20;99.90
59961;DHT22;55902;-37.980;-63.602;2023-10-19T03:22:08;10.10;99.90
59961;DHT22;55902;-37.980;-63.602;2023-10-19T03:24:36;10.00;99.90
59961;DHT22;55902;-37.980;-63.602;2023-10-19T03:27:08;9.90;99.90
59961;DHT22;55902;-37.980;-63.602;2023-10-19T03:29:52;9.90;99.90
59961;DHT22;55902;-37.980;-63.602;2023-10-19T03:32:23;9.80;99.90
59961;DHT22;55902;-37.980;-63.602;2023-10-19T03:34:56;9.80;99.90
59961;DHT22;55902;-37.980;-63.602;2023-10-19T03:37:27;9.80;99.90
59961;DHT22;55902;-37.980;-63.602;2023-10-19T03:40:01;9.70;99.90
59961;DHT22;55902;-37.980;-63.602;2023-10-19T03:42:42;9.70;99.90
59961;DHT22;55902;-37.980;-63.602;2023-10-19T03:45:10;9.70;99.90
59961;DHT22;55902;-37.980;-63.602;2023-10-19T03:47:43;9.60;99.90
59961;DHT22;55902;-37.980;-63.602;2023-10-19T03:50:10;9.60;99.90
59961;DHT22;55902;-37.980;-63.602;2023-10-19T03:52:46;9.60;99.90
59961;DHT22;55902;-37.980;-63.602;2023-10-19T03:55:13;9.60;99.90
59961;DHT22;55902;-37.980;-63.602;2023-10-19T03:57:49;9.50;99.90
59961;DHT22;55902;-37.980;-63.602;2023-10-19T04:00:21;9.50;99.90
59961;DHT22;55902;-37.980;-63.602;2023-10-19T04:02:53;9.40;99.90
59961;DHT22;55902;-37.980;-63.602;2023-10-19T04:05:22;9.40;99.90
59961;DHT22;55902;-37.980;-63.602;2023-10-19T04:07:52;9.50;99.90
59961;DHT22;55902;-37.980;-63.602;2023-10-19T04:10:24;9.50;99.90
59961;DHT22;55902;-37.980;-63.602;2023-10-19T04:13:17;9.50;99.90
59961;DHT22;55902;-37.980;-63.602;2023-10-19T04:15:44;9.60;99.90
59961;DHT22;55902;-37.980;-63.602;2023-10-19T04:18:11;9.60;99.90
59961;DHT22;55902;-37.980;-63.602;2023-10-19T04:20:39;9.60;99.90
59961;DHT22;55902;-37.980;-63.602;2023-10-19T04:23:12;9.60;99.90
59961;DHT22;55902;-37.980;-63.602;2023-10-19T04:25:43;9.60;99.90
59961;DHT22;55902;-37.980;-63.602;2023-10-19T04:38:20;9.50;99.90
59961;DHT22;55902;-37.980;-63.602;2023-10-19T04:40:47;9.60;99.90
59961;DHT22;55902;-37.980;-63.602;2023-10-19T04:43:17;9.60;99.90
59961;DHT22;55902;-37.980;-63.602;2023-10-19T04:45:45;9.60;99.90
59961;DHT22;55902;-37.980;-63.602;2023-10-19T04:48:12;9.60;99.90
59961;DHT22;55902;-37.980;-63.602;2023-10-19T04:50:42;9.60;99.90
59961;DHT22;55902;-37.980;-63.602;2023-10-19T04:53:09;9.60;99.90
59961;DHT22;55902;-37.980;-63.602;2023-10-19T04:55:36;9.60;99.90
59961;DHT22;55902;-37.980;-63.602;2023-10-19T04:58:04;9.70;99.90
59961;DHT22;55902;-37.980;-63.602;2023-10-19T05:00:32;9.70;99.90
59961;DHT22;55902;-37.980;-63.602;2023-10-19T05:02:59;9.70;99.90
59961;DHT22;55902;-37.980;-63.602;2023-10-19T05:05:27;9.80;99.90
59961;DHT22;55902;-37.980;-63.602;2023-10-19T05:07:54;9.80;99.90
59961;DHT22;55902;-37.980;-63.602;2023-10-19T05:10:21;9.90;99.90
59961;DHT22;55902;-37.980;-63.602;2023-10-19T05:12:48;9.90;99.90
59961;DHT22;55902;-37.980;-63.602;2023-10-19T05:15:16;9.90;99.90
59961;DHT22;55902;-37.980;-63.602;2023-10-19T05:17:43;9.90;99.90
59961;DHT22;55902;-37.980;-63.602;2023-10-19T05:20:10;9.90;99.90
59961;DHT22;55902;-37.980;-63.602;2023-10-19T05:22:38;10.00;99.90
59961;DHT22;55902;-37.980;-63.602;2023-10-19T05:25:05;10.00;99.90
59961;DHT22;55902;-37.980;-63.602;2023-10-19T05:27:34;10.00;99.90
59961;DHT22;55902;-37.980;-63.602;2023-10-19T05:40:07;10.00;99.90
59961;DHT22;55902;-37.980;-63.602;2023-10-19T05:42:39;10.00;99.90
59961;DHT22;55902;-37.980;-63.602;2023-10-19T05:45:06;10.10;99.90
59961;DHT22;55902;-37.980;-63.602;2023-10-19T05:47:33;10.00;99.90
59961;DHT22;55902;-37.980;-63.602;2023-10-19T05:50:01;10.00;99.90
59961;DHT22;55902;-37.980;-63.602;2023-10-19T05:52:29;10.00;99.90
59961;DHT22;55902;-37.980;-63.602;2023-10-19T05:54:56;10.00;99.90
59961;DHT22;55902;-37.980;-63.602;2023-10-19T05:57:23;10.00;99.90
59961;DHT22;55902;-37.980;-63.602;2023-10-19T05:59:50;10.00;99.90
59961;DHT22;55902;-37.980;-63.602;2023-10-19T06:02:17;10.00;99.90
59961;DHT22;55902;-37.980;-63.602;2023-10-19T06:04:44;10.10;99.90
59961;DHT22;55902;-37.980;-63.602;2023-10-19T06:07:15;10.10;99.90
59961;DHT22;55902;-37.980;-63.602;2023-10-19T06:09:45;10.00;99.90
59961;DHT22;55902;-37.980;-63.602;2023-10-19T06:12:12;10.10;99.90
59961;DHT22;55902;-37.980;-63.602;2023-10-19T06:14:41;10.10;99.90
59961;DHT22;55902;-37.980;-63.602;2023-10-19T06:17:09;10.10;99.90
59961;DHT22;55902;-37.980;-63.602;2023-10-19T06:19:36;10.10;99.90
59961;DHT22;55902;-37.980;-63.602;2023-10-19T06:22:04;10.10;99.90
59961;DHT22;55902;-37.980;-63.602;2023-10-19T06:24:31;10.00;99.90
59961;DHT22;55902;-37.980;-63.602;2023-10-19T06:26:58;10.00;99.90
59961;DHT22;55902;-37.980;-63.602;2023-10-19T06:29:25;10.10;99.90
59961;DHT22;55902;-37.980;-63.602;2023-10-19T06:31:54;10.10;99.90
59961;DHT22;55902;-37.980;-63.602;2023-10-19T06:34:21;10.00;99.90
59961;DHT22;55902;-37.980;-63.602;2023-10-19T06:36:49;10.10;99.90
59961;DHT22;55902;-37.980;-63.602;2023-10-19T06:39:17;10.00;99.90
59961;DHT22;55902;-37.980;-63.602;2023-10-19T06:41:44;10.10;99.90
59961;DHT22;55902;-37.980;-63.602;2023-10-19T06:44:11;10.20;99.90
59961;DHT22;55902;-37.980;-63.602;2023-10-19T06:46:38;10.20;99.90
59961;DHT22;55902;-37.980;-63.602;2023-10-19T06:49:06;10.20;99.90
59961;DHT22;55902;-37.980;-63.602;2023-10-19T06:51:36;10.20;99.90
59961;DHT22;55902;-37.980;-63.602;2023-10-19T06:54:03;10.20;99.90
59961;DHT22;55902;-37.980;-63.602;2023-10-19T06:56:31;10.20;99.90
59961;DHT22;55902;-37.980;-63.602;2023-10-19T06:59:01;10.30;99.90
59961;DHT22;55902;-37.980;-63.602;2023-10-19T07:01:28;10.20;99.90
59961;DHT22;55902;-37.980;-63.602;2023-10-19T07:04:01;10.30;99.90
59961;DHT22;55902;-37.980;-63.602;2023-10-19T07:06:29;10.20;99.90
59961;DHT22;55902;-37.980;-63.602;2023-10-19T07:08:57;10.20;99.90
59961;DHT22;55902;-37.980;-63.602;2023-10-19T07:11:24;10.20;99.90
59961;DHT22;55902;-37.980;-63.602;2023-10-19T07:13:51;10.20;99.90
59961;DHT22;55902;-37.980;-63.602;2023-10-19T07:16:18;10.20;99.90
59961;DHT22;55902;-37.980;-63.602;2023-10-19T07:18:46;10.30;99.90
59961;DHT22;55902;-37.980;-63.602;2023-10-19T07:21:13;10.30;99.90
59961;DHT22;55902;-37.980;-63.602;2023-10-19T07:23:44;10.20;99.90
59961;DHT22;55902;-37.980;-63.602;2023-10-19T07:26:12;10.30;99.90
59961;DHT22;55902;-37.980;-63.602;2023-10-19T07:28:42;10.30;99.90
59961;DHT22;55902;-37.980;-63.602;2023-10-19T07:31:09;10.30;99.90
59961;DHT22;55902;-37.980;-63.602;2023-10-19T07:33:41;10.30;99.90
59961;DHT22;55902;-37.980;-63.602;2023-10-19T07:36:14;10.30;99.90
59961;DHT22;55902;-37.980;-63.602;2023-10-19T07:38:42;10.30;99.90
59961;DHT22;55902;-37.980;-63.602;2023-10-19T07:41:10;10.40;99.90
59961;DHT22;55902;-37.980;-63.602;2023-10-19T07:43:37;10.40;99.90
59961;DHT22;55902;-37.980;-63.602;2023-10-19T07:46:04;10.30;99.90
59961;DHT22;55902;-37.980;-63.602;2023-10-19T07:48:31;10.30;99.90
59961;DHT22;55902;-37.980;-63.602;2023-10-19T07:50:59;10.30;99.90
59961;DHT22;55902;-37.980;-63.602;2023-10-19T07:53:28;10.30;99.90
59961;DHT22;55902;-37.980;-63.602;2023-10-19T07:55:56;10.30;99.90
59961;DHT22;55902;-37.980;-63.602;2023-10-19T07:58:23;10.40;99.90
59961;DHT22;55902;-37.980;-63.602;2023-10-19T08:01:00;10.40;99.90
59961;DHT22;55902;-37.980;-63.602;2023-10-19T08:03:27;10.40;99.90
59961;DHT22;55902;-37.980;-63.602;2023-10-19T08:05:54;10.40;99.90
59961;DHT22;55902;-37.980;-63.602;2023-10-19T08:08:25;10.40;99.90
59961;DHT22;55902;-37.980;-63.602;2023-10-19T08:10:59;10.40;99.90
59961;DHT22;55902;-37.980;-63.602;2023-10-19T08:13:27;10.40;99.90
59961;DHT22;55902;-37.980;-63.602;2023-10-19T08:15:54;10.40;99.90
59961;DHT22;55902;-37.980;-63.602;2023-10-19T08:18:21;10.40;99.90
59961;DHT22;55902;-37.980;-63.602;2023-10-19T08:20:48;10.40;99.90
59961;DHT22;55902;-37.980;-63.602;2023-10-19T08:23:15;10.40;99.90
59961;DHT22;55902;-37.980;-63.602;2023-10-19T08:25:49;10.40;99.90
59961;DHT22;55902;-37.980;-63.602;2023-10-19T08:28:20;10.40;99.90
59961;DHT22;55902;-37.980;-63.602;2023-10-19T08:30:48;10.30;99.90
59961;DHT22;55902;-37.980;-63.602;2023-10-19T08:33:27;10.40;99.90
59961;DHT22;55902;-37.980;-63.602;2023-10-19T08:35:56;10.30;99.90
59961;DHT22;55902;-37.980;-63.602;2023-10-19T08:38:27;10.30;99.90
59961;DHT22;55902;-37.980;-63.602;2023-10-19T08:40:54;10.30;99.90
59961;DHT22;55902;-37.980;-63.602;2023-10-19T08:46:44;10.30;99.90
59961;DHT22;55902;-37.980;-63.602;2023-10-19T08:49:15;10.40;99.90
59961;DHT22;55902;-37.980;-63.602;2023-10-19T08:51:47;10.40;99.90
59961;DHT22;55902;-37.980;-63.602;2023-10-19T08:54:14;10.40;99.90
59961;DHT22;55902;-37.980;-63.602;2023-10-19T08:56:42;10.30;99.90
59961;DHT22;55902;-37.980;-63.602;2023-10-19T08:59:13;10.30;99.90
59961;DHT22;55902;-37.980;-63.602;2023-10-19T09:01:43;10.30;99.90
59961;DHT22;55902;-37.980;-63.602;2023-10-19T09:04:11;10.30;99.90
59961;DHT22;55902;-37.980;-63.602;2023-10-19T09:06:40;10.30;99.90
59961;DHT22;55902;-37.980;-63.602;2023-10-19T09:09:12;10.30;99.90
59961;DHT22;55902;-37.980;-63.602;2023-10-19T09:11:54;10.30;99.90
59961;DHT22;55902;-37.980;-63.602;2023-10-19T09:14:35;10.30;99.90
59961;DHT22;55902;-37.980;-63.602;2023-10-19T09:17:06;10.30;99.90
59961;DHT22;55902;-37.980;-63.602;2023-10-19T09:19:46;10.20;99.90
59961;DHT22;55902;-37.980;-63.602;2023-10-19T09:22:14;10.30;99.90
59961;DHT22;55902;-37.980;-63.602;2023-10-19T09:24:49;10.20;99.90
59961;DHT22;55902;-37.980;-63.602;2023-10-19T09:27:22;10.20;99.90
59961;DHT22;55902;-37.980;-63.602;2023-10-19T09:29:52;10.20;99.90
59961;DHT22;55902;-37.980;-63.602;2023-10-19T09:32:22;10.20;99.90
59961;DHT22;55902;-37.980;-63.602;2023-10-19T09:34:50;10.20;99.90
59961;DHT22;55902;-37.980;-63.602;2023-10-19T09:37:23;10.20;99.90
59961;DHT22;55902;-37.980;-63.602;2023-10-19T09:39:50;10.20;99.90
59961;DHT22;55902;-37.980;-63.602;2023-10-19T09:42:19;10.20;99.90
59961;DHT22;55902;-37.980;-63.602;2023-10-19T09:44:58;10.20;99.90
59961;DHT22;55902;-37.980;-63.602;2023-10-19T09:47:35;10.20;99.90
59961;DHT22;55902;-37.980;-63.602;2023-10-19T09:50:06;10.20;99.90
59961;DHT22;55902;-37.980;-63.602;2023-10-19T09:52:34;10.20;99.90
59961;DHT22;55902;-37.980;-63.602;2023-10-19T09:55:24;10.20;99.90
59961;DHT22;55902;-37.980;-63.602;2023-10-19T09:57:57;10.20;99.90
59961;DHT22;55902;-37.980;-63.602;2023-10-19T10:00:25;10.30;99.90
59961;DHT22;55902;-37.980;-63.602;2023-10-19T10:02:58;10.30;99.90
59961;DHT22;55902;-37.980;-63.602;2023-10-19T10:10:51;10.60;99.90
59961;DHT22;55902;-37.980;-63.602;2023-10-19T10:16:42;10.80;99.90
59961;DHT22;55902;-37.980;-63.602;2023-10-19T10:19:34;10.90;99.90
59961;DHT22;55902;-37.980;-63.602;2023-10-19T10:22:12;11.10;99.90
59961;DHT22;55902;-37.980;-63.602;2023-10-19T10:24:55;11.20;99.90
59961;DHT22;55902;-37.980;-63.602;2023-10-19T10:27:22;11.40;99.90
59961;DHT22;55902;-37.980;-63.602;2023-10-19T10:30:00;11.60;99.90
59961;DHT22;55902;-37.980;-63.602;2023-10-19T10:32:44;11.80;99.90
59961;DHT22;55902;-37.980;-63.602;2023-10-19T10:38:06;12.10;99.90
59961;DHT22;55902;-37.980;-63.602;2023-10-19T10:40:46;12.30;99.90
59961;DHT22;55902;-37.980;-63.602;2023-10-19T10:43:18;12.40;99.90
59961;DHT22;55902;-37.980;-63.602;2023-10-19T10:45:48;12.50;99.90
59961;DHT22;55902;-37.980;-63.602;2023-10-19T10:48:19;12.60;99.90
59961;DHT22;55902;-37.980;-63.602;2023-10-19T10:53:44;12.70;99.90
59961;DHT22;55902;-37.980;-63.602;2023-10-19T10:56:28;12.80;99.90
59961;DHT22;55902;-37.980;-63.602;2023-10-19T10:58:55;12.80;99.90
59961;DHT22;55902;-37.980;-63.602;2023-10-19T11:01:31;12.80;99.90
59961;DHT22;55902;-37.980;-63.602;2023-10-19T11:04:11;12.80;99.90
59961;DHT22;55902;-37.980;-63.602;2023-10-19T11:06:51;12.90;99.90
59961;DHT22;55902;-37.980;-63.602;2023-10-19T11:09:22;12.90;99.90
59961;DHT22;55902;-37.980;-63.602;2023-10-19T11:11:54;12.90;99.90
59961;DHT22;55902;-37.980;-63.602;2023-10-19T11:14:21;12.90;99.90
59961;DHT22;55902;-37.980;-63.602;2023-10-19T11:16:51;12.90;99.90
59961;DHT22;55902;-37.980;-63.602;2023-10-19T11:19:18;13.00;99.90
59961;DHT22;55902;-37.980;-63.602;2023-10-19T11:21:57;13.20;99.90
59961;DHT22;55902;-37.980;-63.602;2023-10-19T11:24:26;13.50;99.90
59961;DHT22;55902;-37.980;-63.602;2023-10-19T11:26:53;13.70;99.90
59961;DHT22;55902;-37.980;-63.602;2023-10-19T11:29:22;14.20;99.90
59961;DHT22;55902;-37.980;-63.602;2023-10-19T11:32:00;14.80;99.90
59961;DHT22;55902;-37.980;-63.602;2023-10-19T11:34:33;15.30;99.90
59961;DHT22;55902;-37.980;-63.602;2023-10-19T11:37:01;15.60;99.70
59961;DHT22;55902;-37.980;-63.602;2023-10-19T11:39:34;16.00;98.80
59961;DHT22;55902;-37.980;-63.602;2023-10-19T11:42:01;16.20;97.70
59961;DHT22;55902;-37.980;-63.602;2023-10-19T11:44:31;16.10;97.10
59961;DHT22;55902;-37.980;-63.602;2023-10-19T11:47:01;15.90;96.90
59961;DHT22;55902;-37.980;-63.602;2023-10-19T11:49:30;15.60;96.30
59961;DHT22;55902;-37.980;-63.602;2023-10-19T11:52:00;15.40;96.10
59961;DHT22;55902;-37.980;-63.602;2023-10-19T11:54:39;15.20;96.00
59961;DHT22;55902;-37.980;-63.602;2023-10-19T11:57:06;15.10;96.10
59961;DHT22;55902;-37.980;-63.602;2023-10-19T11:59:33;15.00;96.30
59961;DHT22;55902;-37.980;-63.602;2023-10-19T12:02:00;15.00;96.90
59961;DHT22;55902;-37.980;-63.602;2023-10-19T12:04:33;15.00;96.50
59961;DHT22;55902;-37.980;-63.602;2023-10-19T12:07:02;15.10;96.00
59961;DHT22;55902;-37.980;-63.602;2023-10-19T12:09:30;15.10;95.50
59961;DHT22;55902;-37.980;-63.602;2023-10-19T12:11:59;15.00;95.40
59961;DHT22;55902;-37.980;-63.602;2023-10-19T12:14:27;15.00;95.30
59961;DHT22;55902;-37.980;-63.602;2023-10-19T12:16:57;15.00;95.40
59961;DHT22;55902;-37.980;-63.602;2023-10-19T12:19:29;15.00;95.80
59961;DHT22;55902;-37.980;-63.602;2023-10-19T12:21:57;15.10;95.70
59961;DHT22;55902;-37.980;-63.602;2023-10-19T12:24:24;15.10;95.90
59961;DHT22;55902;-37.980;-63.602;2023-10-19T12:26:54;15.30;95.90
59961;DHT22;55902;-37.980;-63.602;2023-10-19T12:29:22;15.70;95.30
59961;DHT22;55902;-37.980;-63.602;2023-10-19T12:31:49;16.20;94.90
59961;DHT22;55902;-37.980;-63.602;2023-10-19T12:34:17;16.80;93.00
59961;DHT22;55902;-37.980;-63.602;2023-10-19T12:36:47;17.20;91.50
59961;DHT22;55902;-37.980;-63.602;2023-10-19T12:39:19;17.70;90.40
59961;DHT22;55902;-37.980;-63.602;2023-10-19T12:42:02;17.80;87.80
59961;DHT22;55902;-37.980;-63.602;2023-10-19T12:44:29;18.10;86.00
59961;DHT22;55902;-37.980;-63.602;2023-10-19T12:47:08;18.30;84.40
59961;DHT22;55902;-37.980;-63.602;2023-10-19T12:49:43;18.70;86.20
59961;DHT22;55902;-37.980;-63.602;2023-10-19T12:52:12;19.10;83.90
59961;DHT22;55902;-37.980;-63.602;2023-10-19T12:54:41;19.40;81.10
59961;DHT22;55902;-37.980;-63.602;2023-10-19T12:57:15;19.60;79.10
59961;DHT22;55902;-37.980;-63.602;2023-10-19T12:59:46;19.80;77.20
59961;DHT22;55902;-37.980;-63.602;2023-10-19T13:02:19;19.80;74.90
59961;DHT22;55902;-37.980;-63.602;2023-10-19T13:05:12;20.00;73.90
59961;DHT22;55902;-37.980;-63.602;2023-10-19T13:08:07;20.20;73.60
59961;DHT22;55902;-37.980;-63.602;2023-10-19T13:10:47;20.20;71.60
59961;DHT22;55902;-37.980;-63.602;2023-10-19T13:13:21;20.40;71.40
59961;DHT22;55902;-37.980;-63.602;2023-10-19T13:15:53;20.60;71.00
59961;DHT22;55902;-37.980;-63.602;2023-10-19T13:18:23;21.00;73.10
59961;DHT22;55902;-37.980;-63.602;2023-10-19T13:21:01;21.20;67.60
59961;DHT22;55902;-37.980;-63.602;2023-10-19T13:23:35;21.20;66.50
59961;DHT22;55902;-37.980;-63.602;2023-10-19T13:26:13;21.20;63.90
59961;DHT22;55902;-37.980;-63.602;2023-10-19T13:28:44;21.20;64.10
59961;DHT22;55902;-37.980;-63.602;2023-10-19T13:31:11;21.10;63.50
59961;DHT22;55902;-37.980;-63.602;2023-10-19T13:33:42;21.00;62.30
59961;DHT22;55902;-37.980;-63.602;2023-10-19T13:36:14;20.90;60.70
59961;DHT22;55902;-37.980;-63.602;2023-10-19T13:38:48;21.10;62.10
59961;DHT22;55902;-37.980;-63.602;2023-10-19T13:41:19;21.30;59.80
59961;DHT22;55902;-37.980;-63.602;2023-10-19T13:43:49;21.50;59.30
59961;DHT22;55902;-37.980;-63.602;2023-10-19T13:46:20;21.60;60.40
59961;DHT22;55902;-37.980;-63.602;2023-10-19T13:48:50;21.50;58.40
59961;DHT22;55902;-37.980;-63.602;2023-10-19T13:51:23;21.60;60.00
59961;DHT22;55902;-37.980;-63.602;2023-10-19T13:53:56;21.70;60.20
59961;DHT22;55902;-37.980;-63.602;2023-10-19T13:56:24;21.80;59.40
59961;DHT22;55902;-37.980;-63.602;2023-10-19T13:58:58;22.10;58.40
59961;DHT22;55902;-37.980;-63.602;2023-10-19T14:01:31;22.00;58.50
59961;DHT22;55902;-37.980;-63.602;2023-10-19T14:03:58;21.90;58.30
59961;DHT22;55902;-37.980;-63.602;2023-10-19T14:06:56;21.90;58.00
59961;DHT22;55902;-37.980;-63.602;2023-10-19T14:09:48;21.80;58.40
59961;DHT22;55902;-37.980;-63.602;2023-10-19T14:12:18;21.70;57.70
59961;DHT22;55902;-37.980;-63.602;2023-10-19T14:14:45;21.60;57.90
59961;DHT22;55902;-37.980;-63.602;2023-10-19T14:17:40;21.60;57.70
59961;DHT22;55902;-37.980;-63.602;2023-10-19T14:20:29;21.70;57.50
59961;DHT22;55902;-37.980;-63.602;2023-10-19T14:23:04;21.80;57.60
59961;DHT22;55902;-37.980;-63.602;2023-10-19T14:25:37;22.00;57.30
59961;DHT22;55902;-37.980;-63.602;2023-10-19T14:28:05;22.20;58.10
59961;DHT22;55902;-37.980;-63.602;2023-10-19T14:31:01;22.30;57.60
59961;DHT22;55902;-37.980;-63.602;2023-10-19T14:33:55;22.30;58.30
59961;DHT22;55902;-37.980;-63.602;2023-10-19T14:36:29;22.50;58.10
59961;DHT22;55902;-37.980;-63.602;2023-10-19T14:38:59;22.50;56.30
59961;DHT22;55902;-37.980;-63.602;2023-10-19T14:41:45;22.70;56.30
59961;DHT22;55902;-37.980;-63.602;2023-10-19T14:44:25;22.90;55.40
59961;DHT22;55902;-37.980;-63.602;2023-10-19T14:46:54;22.90;56.00
59961;DHT22;55902;-37.980;-63.602;2023-10-19T14:49:21;23.20;57.50
59961;DHT22;55902;-37.980;-63.602;2023-10-19T14:51:48;23.30;55.70
59961;DHT22;55902;-37.980;-63.602;2023-10-19T14:54:15;23.30;54.50
59961;DHT22;55902;-37.980;-63.602;2023-10-19T14:56:42;23.50;53.00
59961;DHT22;55902;-37.980;-63.602;2023-10-19T14:59:12;23.50;52.70
59961;DHT22;55902;-37.980;-63.602;2023-10-19T15:01:45;23.60;53.30
59961;DHT22;55902;-37.980;-63.602;2023-10-19T15:04:18;23.50;52.90
59961;DHT22;55902;-37.980;-63.602;2023-10-19T15:06:48;23.60;53.80
59961;DHT22;55902;-37.980;-63.602;2023-10-19T15:09:18;23.60;52.50
59961;DHT22;55902;-37.980;-63.602;2023-10-19T15:11:54;23.90;53.60
59961;DHT22;55902;-37.980;-63.602;2023-10-19T15:14:28;24.10;53.80
59961;DHT22;55902;-37.980;-63.602;2023-10-19T15:17:00;24.20;53.50
59961;DHT22;55902;-37.980;-63.602;2023-10-19T15:19:29;24.40;53.10
59961;DHT22;55902;-37.980;-63.602;2023-10-19T15:21:57;24.40;51.00
59961;DHT22;55902;-37.980;-63.602;2023-10-19T15:24:31;24.80;51.90
59961;DHT22;55902;-37.980;-63.602;2023-10-19T15:27:01;24.90;50.90
59961;DHT22;55902;-37.980;-63.602;2023-10-19T15:29:32;25.00;51.40
59961;DHT22;55902;-37.980;-63.602;2023-10-19T15:32:04;25.00;50.80
59961;DHT22;55902;-37.980;-63.602;2023-10-19T15:34:40;24.90;50.80
59961;DHT22;55902;-37.980;-63.602;2023-10-19T15:37:13;24.50;51.50
59961;DHT22;55902;-37.980;-63.602;2023-10-19T15:39:44;24.30;51.80
59961;DHT22;55902;-37.980;-63.602;2023-10-19T15:42:42;24.30;50.70
59961;DHT22;55902;-37.980;-63.602;2023-10-19T15:45:14;24.20;52.20
59961;DHT22;55902;-37.980;-63.602;2023-10-19T15:47:48;24.50;51.10
59961;DHT22;55902;-37.980;-63.602;2023-10-19T15:50:32;24.70;49.60
59961;DHT22;55902;-37.980;-63.602;2023-10-19T15:53:12;24.90;50.70
59961;DHT22;55902;-37.980;-63.602;2023-10-19T15:55:40;25.40;49.40
59961;DHT22;55902;-37.980;-63.602;2023-10-19T15:58:10;25.90;50.00
59961;DHT22;55902;-37.980;-63.602;2023-10-19T16:00:37;26.20;49.00
59961;DHT22;55902;-37.980;-63.602;2023-10-19T16:03:18;26.00;49.50
59961;DHT22;55902;-37.980;-63.602;2023-10-19T16:05:48;26.20;47.00
59961;DHT22;55902;-37.980;-63.602;2023-10-19T16:08:23;26.10;47.50
59961;DHT22;55902;-37.980;-63.602;2023-10-19T16:10:57;25.80;47.30
59961;DHT22;55902;-37.980;-63.602;2023-10-19T16:13:24;26.00;49.40